Strona główna
METAR-TAF:

METAR-TAF

Lotnisko :

Port lotniczy Szolnok

Szolnok, Węgry

Szerokość geograficzna: 47-07N, Długość geograficzna: 020-14E, wysokość: 89 m

Aktualna obserwacja pogody

Raport powstał 20 minut temu, godzina 04:15 UTC
Wiatr 2 kt od zachód
Temperatura 3°C
Wilgotność 75%
Ciśnienie 1022 hPa
Widzialność 10 km lub więcej
Brak chmur poniżej 1500 m i brak chmur cumulonimbus

METAR: LHSN 090415Z 28002KT CAVOK 03/M01 Q1022 NOSIG RMK BLU

czas: 06:35 (04:35 UTC)

Prognoza

Raport powstał 2 godziny i 20 minut temu, godzina 02:15 UTC
Prognoza ważna od 09 godzina 03 UTC do 09 godzina 12 UTC
Wiatr 3 kt z kierunków zmiennych
Widzialność 10 km lub więcej
Brak chmur poniżej 1500 m i brak chmur cumulonimbus
Stopniowe zmiany
od 09 godzina 09 UTC do 09 godzina 11 UTC
Wiatr 5 kt od zachód

TAF: LHSN 090215Z 0903/0912 VRB03KT CAVOK BECMG 0909/0911 27005KT

Obserwacja i prognoza pogody dla ponad 4000 lotnisk (raport METAR i TAF).

Dostępne stacje oznaczono żółtymi i czerwonymi punktami na mapie.

Najedź kursorem aby zobaczyć nazwę stacji.

Kliknij aby zobaczyć obserwacje i prognozy pogody.

Aby zmienić mapę: kliknij na zielony przycisk z czarnym krzyżykiem, aby powiększyć; na zielony przycisk z myślnikiem, aby pomniejszyć; na zielone strzałki, aby przejść do map sąsiednich.


METAR-TAF: